sensor_id;sensor_type;location;lat;lon;timestamp;temperature;humidity
39045;DHT22;52192;52.002;5.956;2024-01-15T00:01:45;4.30;88.90
39045;DHT22;52192;52.002;5.956;2024-01-15T00:04:11;4.20;88.90
39045;DHT22;52192;52.002;5.956;2024-01-15T00:06:36;4.10;88.90
39045;DHT22;52192;52.002;5.956;2024-01-15T00:09:02;4.10;89.10
39045;DHT22;52192;52.002;5.956;2024-01-15T00:11:28;4.10;89.00
39045;DHT22;52192;52.002;5.956;2024-01-15T00:13:54;4.10;89.00
39045;DHT22;52192;52.002;5.956;2024-01-15T00:16:19;4.00;89.00
39045;DHT22;52192;52.002;5.956;2024-01-15T00:18:45;4.10;89.00
39045;DHT22;52192;52.002;5.956;2024-01-15T00:21:11;4.10;88.70
39045;DHT22;52192;52.002;5.956;2024-01-15T00:23:36;4.00;88.70
39045;DHT22;52192;52.002;5.956;2024-01-15T00:26:02;4.00;88.70
39045;DHT22;52192;52.002;5.956;2024-01-15T00:28:28;4.00;88.70
39045;DHT22;52192;52.002;5.956;2024-01-15T00:30:53;4.00;88.70
39045;DHT22;52192;52.002;5.956;2024-01-15T00:33:19;4.00;88.60
39045;DHT22;52192;52.002;5.956;2024-01-15T00:35:45;4.00;88.70
39045;DHT22;52192;52.002;5.956;2024-01-15T00:38:11;4.00;88.60
39045;DHT22;52192;52.002;5.956;2024-01-15T00:40:36;3.90;88.70
39045;DHT22;52192;52.002;5.956;2024-01-15T00:43:03;3.90;89.20
39045;DHT22;52192;52.002;5.956;2024-01-15T00:45:28;3.90;88.70
39045;DHT22;52192;52.002;5.956;2024-01-15T00:47:54;3.90;88.70
39045;DHT22;52192;52.002;5.956;2024-01-15T00:50:22;3.80;88.60
39045;DHT22;52192;52.002;5.956;2024-01-15T00:52:47;3.80;88.70
39045;DHT22;52192;52.002;5.956;2024-01-15T00:55:13;3.80;89.30
39045;DHT22;52192;52.002;5.956;2024-01-15T00:57:40;3.70;88.70
39045;DHT22;52192;52.002;5.956;2024-01-15T01:00:06;3.80;88.70
39045;DHT22;52192;52.002;5.956;2024-01-15T01:02:32;3.70;88.70
39045;DHT22;52192;52.002;5.956;2024-01-15T01:04:58;3.70;88.60
39045;DHT22;52192;52.002;5.956;2024-01-15T01:07:24;3.70;88.60
39045;DHT22;52192;52.002;5.956;2024-01-15T01:09:50;3.70;88.40
39045;DHT22;52192;52.002;5.956;2024-01-15T01:12:17;3.70;88.50
39045;DHT22;52192;52.002;5.956;2024-01-15T01:14:43;3.70;88.50
39045;DHT22;52192;52.002;5.956;2024-01-15T01:17:09;3.70;88.40
39045;DHT22;52192;52.002;5.956;2024-01-15T01:19:35;3.70;88.90
39045;DHT22;52192;52.002;5.956;2024-01-15T01:22:00;3.70;88.20
39045;DHT22;52192;52.002;5.956;2024-01-15T01:24:26;3.60;88.20
39045;DHT22;52192;52.002;5.956;2024-01-15T01:26:52;3.70;88.40
39045;DHT22;52192;52.002;5.956;2024-01-15T01:29:18;3.70;88.10
39045;DHT22;52192;52.002;5.956;2024-01-15T01:31:44;3.60;88.00
39045;DHT22;52192;52.002;5.956;2024-01-15T01:34:13;3.60;88.10
39045;DHT22;52192;52.002;5.956;2024-01-15T01:36:39;3.50;88.00
39045;DHT22;52192;52.002;5.956;2024-01-15T01:39:05;3.50;88.10
39045;DHT22;52192;52.002;5.956;2024-01-15T01:41:30;3.50;88.20
39045;DHT22;52192;52.002;5.956;2024-01-15T01:43:57;3.50;87.90
39045;DHT22;52192;52.002;5.956;2024-01-15T01:46:23;3.50;88.00
39045;DHT22;52192;52.002;5.956;2024-01-15T01:48:49;3.50;87.90
39045;DHT22;52192;52.002;5.956;2024-01-15T01:51:15;3.50;87.90
39045;DHT22;52192;52.002;5.956;2024-01-15T01:53:41;3.50;87.80
39045;DHT22;52192;52.002;5.956;2024-01-15T01:56:07;3.50;87.80
39045;DHT22;52192;52.002;5.956;2024-01-15T01:58:33;3.50;87.60
39045;DHT22;52192;52.002;5.956;2024-01-15T02:00:59;3.50;87.50
39045;DHT22;52192;52.002;5.956;2024-01-15T02:03:27;3.50;87.40
39045;DHT22;52192;52.002;5.956;2024-01-15T02:05:53;3.50;87.40
39045;DHT22;52192;52.002;5.956;2024-01-15T02:08:19;3.50;87.40
39045;DHT22;52192;52.002;5.956;2024-01-15T02:10:45;3.50;87.40
39045;DHT22;52192;52.002;5.956;2024-01-15T02:13:11;3.50;87.30
39045;DHT22;52192;52.002;5.956;2024-01-15T02:15:37;3.50;87.30
39045;DHT22;52192;52.002;5.956;2024-01-15T02:18:04;3.50;87.30
39045;DHT22;52192;52.002;5.956;2024-01-15T02:20:32;3.50;87.30
39045;DHT22;52192;52.002;5.956;2024-01-15T02:23:08;3.50;87.20
39045;DHT22;52192;52.002;5.956;2024-01-15T02:25:43;3.50;87.20
39045;DHT22;52192;52.002;5.956;2024-01-15T02:28:13;3.50;87.00
39045;DHT22;52192;52.002;5.956;2024-01-15T02:30:40;3.50;87.00
39045;DHT22;52192;52.002;5.956;2024-01-15T02:33:10;3.50;87.60
39045;DHT22;52192;52.002;5.956;2024-01-15T02:35:36;3.50;87.10
39045;DHT22;52192;52.002;5.956;2024-01-15T02:38:03;3.50;87.00
39045;DHT22;52192;52.002;5.956;2024-01-15T02:40:29;3.50;87.10
39045;DHT22;52192;52.002;5.956;2024-01-15T02:42:55;3.50;87.00
39045;DHT22;52192;52.002;5.956;2024-01-15T02:45:21;3.50;87.00
39045;DHT22;52192;52.002;5.956;2024-01-15T02:47:47;3.50;87.10
39045;DHT22;52192;52.002;5.956;2024-01-15T02:50:14;3.50;87.00
39045;DHT22;52192;52.002;5.956;2024-01-15T02:52:40;3.50;87.00
39045;DHT22;52192;52.002;5.956;2024-01-15T02:55:06;3.50;86.90
39045;DHT22;52192;52.002;5.956;2024-01-15T02:57:32;3.50;87.00
39045;DHT22;52192;52.002;5.956;2024-01-15T02:59:58;3.50;87.10
39045;DHT22;52192;52.002;5.956;2024-01-15T03:02:24;3.50;87.20
39045;DHT22;52192;52.002;5.956;2024-01-15T03:04:49;3.50;87.20
39045;DHT22;52192;52.002;5.956;2024-01-15T03:07:15;3.50;87.30
39045;DHT22;52192;52.002;5.956;2024-01-15T03:09:41;3.50;87.30
39045;DHT22;52192;52.002;5.956;2024-01-15T03:12:07;3.50;87.40
39045;DHT22;52192;52.002;5.956;2024-01-15T03:14:33;3.50;87.40
39045;DHT22;52192;52.002;5.956;2024-01-15T03:16:59;3.60;87.50
39045;DHT22;52192;52.002;5.956;2024-01-15T03:19:26;3.60;87.40
39045;DHT22;52192;52.002;5.956;2024-01-15T03:21:52;3.60;87.40
39045;DHT22;52192;52.002;5.956;2024-01-15T03:24:17;3.50;87.40
39045;DHT22;52192;52.002;5.956;2024-01-15T03:26:43;3.50;87.40
39045;DHT22;52192;52.002;5.956;2024-01-15T03:29:09;3.60;87.40
39045;DHT22;52192;52.002;5.956;2024-01-15T03:31:35;3.60;87.50
39045;DHT22;52192;52.002;5.956;2024-01-15T03:34:00;3.60;87.40
39045;DHT22;52192;52.002;5.956;2024-01-15T03:36:26;3.50;87.40
39045;DHT22;52192;52.002;5.956;2024-01-15T03:38:52;3.50;87.40
39045;DHT22;52192;52.002;5.956;2024-01-15T03:41:17;3.50;87.50
39045;DHT22;52192;52.002;5.956;2024-01-15T03:43:43;3.50;87.50
39045;DHT22;52192;52.002;5.956;2024-01-15T03:46:09;3.50;87.50
39045;DHT22;52192;52.002;5.956;2024-01-15T03:48:35;3.40;87.50
39045;DHT22;52192;52.002;5.956;2024-01-15T03:51:01;3.40;87.50
39045;DHT22;52192;52.002;5.956;2024-01-15T03:53:26;3.40;87.60
39045;DHT22;52192;52.002;5.956;2024-01-15T03:55:52;3.40;87.80
39045;DHT22;52192;52.002;5.956;2024-01-15T03:58:18;3.40;87.70
39045;DHT22;52192;52.002;5.956;2024-01-15T04:00:44;3.40;87.60
39045;DHT22;52192;52.002;5.956;2024-01-15T04:03:09;3.50;87.50
39045;DHT22;52192;52.002;5.956;2024-01-15T04:05:35;3.50;87.60
39045;DHT22;52192;52.002;5.956;2024-01-15T04:08:01;3.50;87.60
39045;DHT22;52192;52.002;5.956;2024-01-15T04:10:27;3.50;87.50
39045;DHT22;52192;52.002;5.956;2024-01-15T04:12:52;3.50;87.60
39045;DHT22;52192;52.002;5.956;2024-01-15T04:15:18;3.50;87.70
39045;DHT22;52192;52.002;5.956;2024-01-15T04:17:44;3.50;87.70
39045;DHT22;52192;52.002;5.956;2024-01-15T04:20:10;3.50;87.80
39045;DHT22;52192;52.002;5.956;2024-01-15T04:22:36;3.50;87.80
39045;DHT22;52192;52.002;5.956;2024-01-15T04:25:02;3.50;87.90
39045;DHT22;52192;52.002;5.956;2024-01-15T04:27:28;3.40;88.00
39045;DHT22;52192;52.002;5.956;2024-01-15T04:29:54;3.40;88.10
39045;DHT22;52192;52.002;5.956;2024-01-15T04:32:20;3.40;88.40
39045;DHT22;52192;52.002;5.956;2024-01-15T04:34:46;3.40;88.50
39045;DHT22;52192;52.002;5.956;2024-01-15T04:37:13;3.40;88.40
39045;DHT22;52192;52.002;5.956;2024-01-15T04:39:38;3.40;88.30
39045;DHT22;52192;52.002;5.956;2024-01-15T04:42:04;3.40;88.30
39045;DHT22;52192;52.002;5.956;2024-01-15T04:44:30;3.40;88.20
39045;DHT22;52192;52.002;5.956;2024-01-15T04:46:56;3.40;88.20
39045;DHT22;52192;52.002;5.956;2024-01-15T04:49:21;3.40;88.20
39045;DHT22;52192;52.002;5.956;2024-01-15T04:51:47;3.40;88.10
39045;DHT22;52192;52.002;5.956;2024-01-15T04:54:13;3.40;88.20
39045;DHT22;52192;52.002;5.956;2024-01-15T04:56:43;3.30;88.20
39045;DHT22;52192;52.002;5.956;2024-01-15T04:59:10;3.30;88.30
39045;DHT22;52192;52.002;5.956;2024-01-15T05:01:36;3.30;88.30
39045;DHT22;52192;52.002;5.956;2024-01-15T05:04:01;3.20;88.40
39045;DHT22;52192;52.002;5.956;2024-01-15T05:06:27;3.20;88.50
39045;DHT22;52192;52.002;5.956;2024-01-15T05:08:53;3.20;88.70
39045;DHT22;52192;52.002;5.956;2024-01-15T05:11:19;3.20;88.80
39045;DHT22;52192;52.002;5.956;2024-01-15T05:13:44;3.20;88.80
39045;DHT22;52192;52.002;5.956;2024-01-15T05:16:10;3.20;88.80
39045;DHT22;52192;52.002;5.956;2024-01-15T05:18:36;3.20;88.80
39045;DHT22;52192;52.002;5.956;2024-01-15T05:21:04;3.20;88.80
39045;DHT22;52192;52.002;5.956;2024-01-15T05:23:31;3.20;88.80
39045;DHT22;52192;52.002;5.956;2024-01-15T05:25:57;3.20;88.80
39045;DHT22;52192;52.002;5.956;2024-01-15T05:28:23;3.20;88.90
39045;DHT22;52192;52.002;5.956;2024-01-15T05:30:49;3.10;89.00
39045;DHT22;52192;52.002;5.956;2024-01-15T05:33:16;3.10;89.10
39045;DHT22;52192;52.002;5.956;2024-01-15T05:35:42;3.20;89.00
39045;DHT22;52192;52.002;5.956;2024-01-15T05:38:08;3.20;89.00
39045;DHT22;52192;52.002;5.956;2024-01-15T05:40:34;3.20;88.90
39045;DHT22;52192;52.002;5.956;2024-01-15T05:42:59;3.20;88.90
39045;DHT22;52192;52.002;5.956;2024-01-15T05:45:30;3.20;88.90
39045;DHT22;52192;52.002;5.956;2024-01-15T05:47:55;3.30;88.90
39045;DHT22;52192;52.002;5.956;2024-01-15T05:50:21;3.30;88.90
39045;DHT22;52192;52.002;5.956;2024-01-15T05:52:47;3.30;88.90
39045;DHT22;52192;52.002;5.956;2024-01-15T05:55:13;3.30;88.90
39045;DHT22;52192;52.002;5.956;2024-01-15T05:57:39;3.30;88.80
39045;DHT22;52192;52.002;5.956;2024-01-15T06:00:05;3.40;88.80
39045;DHT22;52192;52.002;5.956;2024-01-15T06:02:31;3.40;88.70
39045;DHT22;52192;52.002;5.956;2024-01-15T06:04:57;3.40;88.60
39045;DHT22;52192;52.002;5.956;2024-01-15T06:07:22;3.40;88.60
39045;DHT22;52192;52.002;5.956;2024-01-15T06:09:48;3.40;88.70
39045;DHT22;52192;52.002;5.956;2024-01-15T06:12:14;3.50;88.70
39045;DHT22;52192;52.002;5.956;2024-01-15T06:14:40;3.50;88.70
39045;DHT22;52192;52.002;5.956;2024-01-15T06:17:07;3.50;88.70
39045;DHT22;52192;52.002;5.956;2024-01-15T06:19:32;3.50;88.70
39045;DHT22;52192;52.002;5.956;2024-01-15T06:21:58;3.50;88.70
39045;DHT22;52192;52.002;5.956;2024-01-15T06:24:24;3.50;88.70
39045;DHT22;52192;52.002;5.956;2024-01-15T06:26:50;3.50;88.80
39045;DHT22;52192;52.002;5.956;2024-01-15T06:29:15;3.50;88.90
39045;DHT22;52192;52.002;5.956;2024-01-15T06:31:41;3.50;89.00
39045;DHT22;52192;52.002;5.956;2024-01-15T06:34:06;3.50;88.90
39045;DHT22;52192;52.002;5.956;2024-01-15T06:36:32;3.60;88.90
39045;DHT22;52192;52.002;5.956;2024-01-15T06:38:58;3.60;88.80
39045;DHT22;52192;52.002;5.956;2024-01-15T06:41:23;3.50;88.90
39045;DHT22;52192;52.002;5.956;2024-01-15T06:43:51;3.50;89.10
39045;DHT22;52192;52.002;5.956;2024-01-15T06:46:23;3.50;89.00
39045;DHT22;52192;52.002;5.956;2024-01-15T06:48:49;3.50;88.80
39045;DHT22;52192;52.002;5.956;2024-01-15T06:51:16;3.50;88.80
39045;DHT22;52192;52.002;5.956;2024-01-15T06:53:42;3.50;88.80
39045;DHT22;52192;52.002;5.956;2024-01-15T06:56:08;3.50;88.70
39045;DHT22;52192;52.002;5.956;2024-01-15T06:58:34;3.40;88.80
39045;DHT22;52192;52.002;5.956;2024-01-15T07:00:59;3.40;88.90
39045;DHT22;52192;52.002;5.956;2024-01-15T07:03:25;3.50;89.00
39045;DHT22;52192;52.002;5.956;2024-01-15T07:05:51;3.50;88.80
39045;DHT22;52192;52.002;5.956;2024-01-15T07:08:16;3.50;88.70
39045;DHT22;52192;52.002;5.956;2024-01-15T07:10:42;3.50;88.70
39045;DHT22;52192;52.002;5.956;2024-01-15T07:13:08;3.50;88.70
39045;DHT22;52192;52.002;5.956;2024-01-15T07:15:34;3.50;88.80
39045;DHT22;52192;52.002;5.956;2024-01-15T07:18:00;3.50;88.90
39045;DHT22;52192;52.002;5.956;2024-01-15T07:20:25;3.50;88.80
39045;DHT22;52192;52.002;5.956;2024-01-15T07:22:51;3.50;88.70
39045;DHT22;52192;52.002;5.956;2024-01-15T07:25:17;3.40;88.70
39045;DHT22;52192;52.002;5.956;2024-01-15T07:27:42;3.40;88.90
39045;DHT22;52192;52.002;5.956;2024-01-15T07:30:11;3.30;88.90
39045;DHT22;52192;52.002;5.956;2024-01-15T07:32:37;3.30;89.10
39045;DHT22;52192;52.002;5.956;2024-01-15T07:35:03;3.30;89.20
39045;DHT22;52192;52.002;5.956;2024-01-15T07:37:29;3.30;89.30
39045;DHT22;52192;52.002;5.956;2024-01-15T07:39:55;3.20;89.40
39045;DHT22;52192;52.002;5.956;2024-01-15T07:42:20;3.20;89.50
39045;DHT22;52192;52.002;5.956;2024-01-15T07:44:46;3.30;89.50
39045;DHT22;52192;52.002;5.956;2024-01-15T07:47:12;3.30;89.50
39045;DHT22;52192;52.002;5.956;2024-01-15T07:49:38;3.30;89.50
39045;DHT22;52192;52.002;5.956;2024-01-15T07:52:04;3.30;89.40
39045;DHT22;52192;52.002;5.956;2024-01-15T07:54:31;3.30;89.30
39045;DHT22;52192;52.002;5.956;2024-01-15T07:57:00;3.40;89.30
39045;DHT22;52192;52.002;5.956;2024-01-15T07:59:28;3.30;89.30
39045;DHT22;52192;52.002;5.956;2024-01-15T08:01:53;3.40;89.30
39045;DHT22;52192;52.002;5.956;2024-01-15T08:04:19;3.40;89.20
39045;DHT22;52192;52.002;5.956;2024-01-15T08:06:45;3.40;89.20
39045;DHT22;52192;52.002;5.956;2024-01-15T08:09:11;3.40;89.30
39045;DHT22;52192;52.002;5.956;2024-01-15T08:11:41;3.30;89.40
39045;DHT22;52192;52.002;5.956;2024-01-15T08:14:07;3.40;89.60
39045;DHT22;52192;52.002;5.956;2024-01-15T08:16:33;3.40;89.50
39045;DHT22;52192;52.002;5.956;2024-01-15T08:18:59;3.40;89.30
39045;DHT22;52192;52.002;5.956;2024-01-15T08:21:25;3.50;89.10
39045;DHT22;52192;52.002;5.956;2024-01-15T08:23:51;3.40;89.10
39045;DHT22;52192;52.002;5.956;2024-01-15T08:26:17;3.40;89.20
39045;DHT22;52192;52.002;5.956;2024-01-15T08:28:43;3.50;89.30
39045;DHT22;52192;52.002;5.956;2024-01-15T08:31:08;3.50;89.20
39045;DHT22;52192;52.002;5.956;2024-01-15T08:33:34;3.50;89.10
39045;DHT22;52192;52.002;5.956;2024-01-15T08:36:01;3.50;89.10
39045;DHT22;52192;52.002;5.956;2024-01-15T08:38:27;3.40;89.10
39045;DHT22;52192;52.002;5.956;2024-01-15T08:40:52;3.40;89.00
39045;DHT22;52192;52.002;5.956;2024-01-15T08:43:19;3.40;89.20
39045;DHT22;52192;52.002;5.956;2024-01-15T08:45:44;3.50;89.30
39045;DHT22;52192;52.002;5.956;2024-01-15T08:48:10;3.50;89.20
39045;DHT22;52192;52.002;5.956;2024-01-15T08:50:36;3.50;89.10
39045;DHT22;52192;52.002;5.956;2024-01-15T08:53:02;3.60;89.00
39045;DHT22;52192;52.002;5.956;2024-01-15T08:55:28;3.50;88.90
39045;DHT22;52192;52.002;5.956;2024-01-15T08:57:53;3.40;89.00
39045;DHT22;52192;52.002;5.956;2024-01-15T09:00:19;3.40;89.10
39045;DHT22;52192;52.002;5.956;2024-01-15T09:02:45;3.50;89.00
39045;DHT22;52192;52.002;5.956;2024-01-15T09:05:11;3.50;89.00
39045;DHT22;52192;52.002;5.956;2024-01-15T09:07:37;3.50;88.90
39045;DHT22;52192;52.002;5.956;2024-01-15T09:10:02;3.50;88.90
39045;DHT22;52192;52.002;5.956;2024-01-15T09:12:28;3.50;88.70
39045;DHT22;52192;52.002;5.956;2024-01-15T09:14:54;3.50;88.80
39045;DHT22;52192;52.002;5.956;2024-01-15T09:17:21;3.40;88.90
39045;DHT22;52192;52.002;5.956;2024-01-15T09:19:49;3.40;89.00
39045;DHT22;52192;52.002;5.956;2024-01-15T09:22:15;3.40;89.00
39045;DHT22;52192;52.002;5.956;2024-01-15T09:24:44;3.40;89.00
39045;DHT22;52192;52.002;5.956;2024-01-15T09:27:10;3.40;89.00
39045;DHT22;52192;52.002;5.956;2024-01-15T09:29:36;3.40;89.00
39045;DHT22;52192;52.002;5.956;2024-01-15T09:32:11;3.50;89.00
39045;DHT22;52192;52.002;5.956;2024-01-15T09:34:37;3.50;88.90
39045;DHT22;52192;52.002;5.956;2024-01-15T09:37:03;3.60;89.00
39045;DHT22;52192;52.002;5.956;2024-01-15T09:39:29;3.50;88.90
39045;DHT22;52192;52.002;5.956;2024-01-15T09:41:56;3.60;88.90
39045;DHT22;52192;52.002;5.956;2024-01-15T09:44:23;3.60;88.90
39045;DHT22;52192;52.002;5.956;2024-01-15T09:46:49;3.70;88.80
39045;DHT22;52192;52.002;5.956;2024-01-15T09:49:18;3.70;88.60
39045;DHT22;52192;52.002;5.956;2024-01-15T09:51:44;3.80;88.60
39045;DHT22;52192;52.002;5.956;2024-01-15T09:54:11;3.80;88.50
39045;DHT22;52192;52.002;5.956;2024-01-15T09:56:39;4.00;88.50
39045;DHT22;52192;52.002;5.956;2024-01-15T09:59:05;4.10;88.20
39045;DHT22;52192;52.002;5.956;2024-01-15T10:01:31;4.10;88.40
39045;DHT22;52192;52.002;5.956;2024-01-15T10:03:58;4.10;87.70
39045;DHT22;52192;52.002;5.956;2024-01-15T10:06:26;4.00;87.70
39045;DHT22;52192;52.002;5.956;2024-01-15T10:08:54;4.00;87.60
39045;DHT22;52192;52.002;5.956;2024-01-15T10:11:22;3.90;87.70
39045;DHT22;52192;52.002;5.956;2024-01-15T10:13:47;3.90;87.70
39045;DHT22;52192;52.002;5.956;2024-01-15T10:16:17;3.80;87.50
39045;DHT22;52192;52.002;5.956;2024-01-15T10:18:43;3.80;87.70
39045;DHT22;52192;52.002;5.956;2024-01-15T10:21:09;3.90;87.90
39045;DHT22;52192;52.002;5.956;2024-01-15T10:23:34;4.00;87.80
39045;DHT22;52192;52.002;5.956;2024-01-15T10:26:02;4.00;87.50
39045;DHT22;52192;52.002;5.956;2024-01-15T10:28:28;4.20;87.40
39045;DHT22;52192;52.002;5.956;2024-01-15T10:30:56;4.40;86.80
39045;DHT22;52192;52.002;5.956;2024-01-15T10:33:23;4.30;86.50
39045;DHT22;52192;52.002;5.956;2024-01-15T10:35:58;4.20;86.30
39045;DHT22;52192;52.002;5.956;2024-01-15T10:38:25;4.00;86.40
39045;DHT22;52192;52.002;5.956;2024-01-15T10:40:52;4.00;86.90
39045;DHT22;52192;52.002;5.956;2024-01-15T10:43:18;4.00;87.10
39045;DHT22;52192;52.002;5.956;2024-01-15T10:45:48;4.10;87.20
39045;DHT22;52192;52.002;5.956;2024-01-15T10:48:16;4.60;86.80
39045;DHT22;52192;52.002;5.956;2024-01-15T10:50:44;4.90;85.10
39045;DHT22;52192;52.002;5.956;2024-01-15T10:53:12;5.30;84.70
39045;DHT22;52192;52.002;5.956;2024-01-15T10:55:38;5.50;83.50
39045;DHT22;52192;52.002;5.956;2024-01-15T10:58:05;5.40;83.30
39045;DHT22;52192;52.002;5.956;2024-01-15T11:00:36;5.50;84.50
39045;DHT22;52192;52.002;5.956;2024-01-15T11:03:04;7.00;83.80
39045;DHT22;52192;52.002;5.956;2024-01-15T11:05:51;7.80;77.90
39045;DHT22;52192;52.002;5.956;2024-01-15T11:08:18;7.10;76.80
39045;DHT22;52192;52.002;5.956;2024-01-15T11:10:50;6.30;78.90
39045;DHT22;52192;52.002;5.956;2024-01-15T11:13:20;5.60;80.20
39045;DHT22;52192;52.002;5.956;2024-01-15T11:16:06;5.20;81.80
39045;DHT22;52192;52.002;5.956;2024-01-15T11:19:20;4.90;83.00
39045;DHT22;52192;52.002;5.956;2024-01-15T11:21:21;4.60;83.70
39045;DHT22;52192;52.002;5.956;2024-01-15T11:29:07;6.30;80.60
39045;DHT22;52192;52.002;5.956;2024-01-15T11:34:10;5.70;81.10
39045;DHT22;52192;52.002;5.956;2024-01-15T11:42:00;4.90;83.30
39045;DHT22;52192;52.002;5.956;2024-01-15T11:44:26;5.20;84.80
39045;DHT22;52192;52.002;5.956;2024-01-15T11:46:58;6.20;83.30
39045;DHT22;52192;52.002;5.956;2024-01-15T11:52:00;6.70;78.80
39045;DHT22;52192;52.002;5.956;2024-01-15T11:54:30;6.60;80.00
39045;DHT22;52192;52.002;5.956;2024-01-15T11:57:00;7.50;80.40
39045;DHT22;52192;52.002;5.956;2024-01-15T11:59:28;8.80;77.10
39045;DHT22;52192;52.002;5.956;2024-01-15T12:01:54;9.20;73.20
39045;DHT22;52192;52.002;5.956;2024-01-15T12:04:21;9.20;72.60
39045;DHT22;52192;52.002;5.956;2024-01-15T12:06:46;9.90;71.90
39045;DHT22;52192;52.002;5.956;2024-01-15T12:09:12;11.40;69.70
39045;DHT22;52192;52.002;5.956;2024-01-15T12:11:39;12.80;64.90
39045;DHT22;52192;52.002;5.956;2024-01-15T12:14:07;13.50;62.50
39045;DHT22;52192;52.002;5.956;2024-01-15T12:16:37;14.50;60.90
39045;DHT22;52192;52.002;5.956;2024-01-15T12:19:03;15.40;58.20
39045;DHT22;52192;52.002;5.956;2024-01-15T12:21:29;15.90;54.40
39045;DHT22;52192;52.002;5.956;2024-01-15T12:23:56;16.30;54.40
39045;DHT22;52192;52.002;5.956;2024-01-15T12:26:21;16.90;51.60
39045;DHT22;52192;52.002;5.956;2024-01-15T12:28:50;16.60;52.00
39045;DHT22;52192;52.002;5.956;2024-01-15T12:31:16;16.20;52.60
39045;DHT22;52192;52.002;5.956;2024-01-15T12:33:42;16.40;53.00
39045;DHT22;52192;52.002;5.956;2024-01-15T12:36:08;15.70;52.30
39045;DHT22;52192;52.002;5.956;2024-01-15T12:38:34;13.80;53.50
39045;DHT22;52192;52.002;5.956;2024-01-15T12:41:00;11.90;57.70
39045;DHT22;52192;52.002;5.956;2024-01-15T12:43:26;10.30;61.10
39045;DHT22;52192;52.002;5.956;2024-01-15T12:45:53;9.10;64.10
39045;DHT22;52192;52.002;5.956;2024-01-15T12:48:18;8.20;66.40
39045;DHT22;52192;52.002;5.956;2024-01-15T12:50:44;7.40;68.20
39045;DHT22;52192;52.002;5.956;2024-01-15T12:53:11;6.90;70.00
39045;DHT22;52192;52.002;5.956;2024-01-15T12:55:36;6.50;71.30
39045;DHT22;52192;52.002;5.956;2024-01-15T12:58:02;6.30;73.00
39045;DHT22;52192;52.002;5.956;2024-01-15T13:00:28;6.60;73.20
39045;DHT22;52192;52.002;5.956;2024-01-15T13:02:54;6.70;73.10
39045;DHT22;52192;52.002;5.956;2024-01-15T13:05:21;7.10;73.60
39045;DHT22;52192;52.002;5.956;2024-01-15T13:07:47;8.10;73.30
39045;DHT22;52192;52.002;5.956;2024-01-15T13:10:13;9.60;69.90
39045;DHT22;52192;52.002;5.956;2024-01-15T13:12:40;10.40;67.20
39045;DHT22;52192;52.002;5.956;2024-01-15T13:15:06;11.00;66.00
39045;DHT22;52192;52.002;5.956;2024-01-15T13:17:37;11.60;64.30
39045;DHT22;52192;52.002;5.956;2024-01-15T13:20:03;12.20;62.50
39045;DHT22;52192;52.002;5.956;2024-01-15T13:22:29;11.90;60.80
39045;DHT22;52192;52.002;5.956;2024-01-15T13:24:58;10.80;62.10
39045;DHT22;52192;52.002;5.956;2024-01-15T13:27:24;9.60;64.40
39045;DHT22;52192;52.002;5.956;2024-01-15T13:29:49;8.60;66.50
39045;DHT22;52192;52.002;5.956;2024-01-15T13:32:21;7.80;68.30
39045;DHT22;52192;52.002;5.956;2024-01-15T13:34:48;7.40;70.10
39045;DHT22;52192;52.002;5.956;2024-01-15T13:37:14;7.00;71.20
39045;DHT22;52192;52.002;5.956;2024-01-15T13:39:39;6.80;72.10
39045;DHT22;52192;52.002;5.956;2024-01-15T13:42:05;6.70;72.40
39045;DHT22;52192;52.002;5.956;2024-01-15T13:44:31;6.50;72.50
39045;DHT22;52192;52.002;5.956;2024-01-15T13:46:56;6.30;73.10
39045;DHT22;52192;52.002;5.956;2024-01-15T13:49:22;6.10;73.70
39045;DHT22;52192;52.002;5.956;2024-01-15T13:51:49;5.90;74.10
39045;DHT22;52192;52.002;5.956;2024-01-15T13:54:15;5.80;74.40
39045;DHT22;52192;52.002;5.956;2024-01-15T13:56:40;5.70;74.60
39045;DHT22;52192;52.002;5.956;2024-01-15T13:59:07;5.70;75.40
39045;DHT22;52192;52.002;5.956;2024-01-15T14:01:32;6.50;75.60
39045;DHT22;52192;52.002;5.956;2024-01-15T14:03:58;7.50;73.10
39045;DHT22;52192;52.002;5.956;2024-01-15T14:06:24;8.20;71.40
39045;DHT22;52192;52.002;5.956;2024-01-15T14:08:50;9.00;70.10
39045;DHT22;52192;52.002;5.956;2024-01-15T14:11:16;10.00;68.20
39045;DHT22;52192;52.002;5.956;2024-01-15T14:13:41;10.70;65.40
39045;DHT22;52192;52.002;5.956;2024-01-15T14:16:08;10.90;64.00
39045;DHT22;52192;52.002;5.956;2024-01-15T14:18:34;10.70;62.70
39045;DHT22;52192;52.002;5.956;2024-01-15T14:21:00;10.40;63.50
39045;DHT22;52192;52.002;5.956;2024-01-15T14:23:26;10.30;63.50
39045;DHT22;52192;52.002;5.956;2024-01-15T14:25:52;9.90;62.80
39045;DHT22;52192;52.002;5.956;2024-01-15T14:28:18;9.10;64.60
39045;DHT22;52192;52.002;5.956;2024-01-15T14:30:43;8.30;66.50
39045;DHT22;52192;52.002;5.956;2024-01-15T14:33:09;7.50;68.50
39045;DHT22;52192;52.002;5.956;2024-01-15T14:35:35;7.00;70.30
39045;DHT22;52192;52.002;5.956;2024-01-15T14:38:00;6.60;71.50
39045;DHT22;52192;52.002;5.956;2024-01-15T14:40:26;6.30;72.30
39045;DHT22;52192;52.002;5.956;2024-01-15T14:42:52;6.10;72.70
39045;DHT22;52192;52.002;5.956;2024-01-15T14:45:18;5.90;73.40
39045;DHT22;52192;52.002;5.956;2024-01-15T14:47:44;6.10;74.30
39045;DHT22;52192;52.002;5.956;2024-01-15T14:50:10;6.20;73.70
39045;DHT22;52192;52.002;5.956;2024-01-15T14:52:36;6.10;73.60
39045;DHT22;52192;52.002;5.956;2024-01-15T14:55:02;6.00;74.00
39045;DHT22;52192;52.002;5.956;2024-01-15T14:57:28;5.80;74.50
39045;DHT22;52192;52.002;5.956;2024-01-15T14:59:54;5.70;75.10
39045;DHT22;52192;52.002;5.956;2024-01-15T15:02:20;5.60;75.40
39045;DHT22;52192;52.002;5.956;2024-01-15T15:04:46;5.60;75.70
39045;DHT22;52192;52.002;5.956;2024-01-15T15:07:12;5.50;76.10
39045;DHT22;52192;52.002;5.956;2024-01-15T15:09:38;5.60;76.40
39045;DHT22;52192;52.002;5.956;2024-01-15T15:12:05;5.70;76.40
39045;DHT22;52192;52.002;5.956;2024-01-15T15:14:31;5.70;76.40
39045;DHT22;52192;52.002;5.956;2024-01-15T15:17:04;5.70;76.30
39045;DHT22;52192;52.002;5.956;2024-01-15T15:19:30;5.60;76.60
39045;DHT22;52192;52.002;5.956;2024-01-15T15:21:56;5.50;76.90
39045;DHT22;52192;52.002;5.956;2024-01-15T15:24:23;5.40;77.10
39045;DHT22;52192;52.002;5.956;2024-01-15T15:26:49;5.20;77.40
39045;DHT22;52192;52.002;5.956;2024-01-15T15:29:14;5.10;77.80
39045;DHT22;52192;52.002;5.956;2024-01-15T15:31:42;5.00;78.00
39045;DHT22;52192;52.002;5.956;2024-01-15T15:34:08;5.00;78.20
39045;DHT22;52192;52.002;5.956;2024-01-15T15:36:34;4.90;78.70
39045;DHT22;52192;52.002;5.956;2024-01-15T15:39:00;4.80;79.00
39045;DHT22;52192;52.002;5.956;2024-01-15T15:41:25;4.70;79.10
39045;DHT22;52192;52.002;5.956;2024-01-15T15:43:53;4.70;79.40
39045;DHT22;52192;52.002;5.956;2024-01-15T15:46:19;4.70;79.40
39045;DHT22;52192;52.002;5.956;2024-01-15T15:48:45;4.70;79.50
39045;DHT22;52192;52.002;5.956;2024-01-15T15:51:10;4.60;79.50
39045;DHT22;52192;52.002;5.956;2024-01-15T15:53:36;4.60;79.70
39045;DHT22;52192;52.002;5.956;2024-01-15T15:56:01;4.50;79.70